sensor_id;sensor_type;location;lat;lon;timestamp;pressure;altitude;pressure_sealevel;temperature;humidity
76195;BME280;64964;48.694;21.206;2023-12-29T00:02:19;98331.94;;;4.50;75.54
76195;BME280;64964;48.694;21.206;2023-12-29T00:04:45;98337.19;;;4.50;75.35
76195;BME280;64964;48.694;21.206;2023-12-29T00:07:10;98330.28;;;4.49;75.55
76195;BME280;64964;48.694;21.206;2023-12-29T00:09:36;98329.31;;;4.50;75.54
76195;BME280;64964;48.694;21.206;2023-12-29T00:12:07;98332.06;;;4.48;76.03
76195;BME280;64964;48.694;21.206;2023-12-29T00:14:33;98329.31;;;4.50;75.49
76195;BME280;64964;48.694;21.206;2023-12-29T00:16:59;98322.09;;;4.42;75.59
76195;BME280;64964;48.694;21.206;2023-12-29T00:19:25;98331.84;;;4.52;75.53
76195;BME280;64964;48.694;21.206;2023-12-29T00:21:50;98337.06;;;4.52;75.67
76195;BME280;64964;48.694;21.206;2023-12-29T00:24:15;98337.19;;;4.50;75.30
76195;BME280;64964;48.694;21.206;2023-12-29T00:26:42;98329.22;;;4.52;75.87
76195;BME280;64964;48.694;21.206;2023-12-29T00:29:07;98333.59;;;4.51;75.61
76195;BME280;64964;48.694;21.206;2023-12-29T00:31:33;98325.63;;;4.53;75.64
76195;BME280;64964;48.694;21.206;2023-12-29T00:33:58;98325.50;;;4.54;75.69
76195;BME280;64964;48.694;21.206;2023-12-29T00:36:24;98309.34;;;4.49;75.65
76195;BME280;64964;48.694;21.206;2023-12-29T00:38:49;98308.84;;;4.55;75.40
76195;BME280;64964;48.694;21.206;2023-12-29T00:41:15;98304.94;;;4.49;74.86
76195;BME280;64964;48.694;21.206;2023-12-29T00:43:40;98306.66;;;4.39;75.04
76195;BME280;64964;48.694;21.206;2023-12-29T00:46:05;98286.41;;;4.30;75.13
76195;BME280;64964;48.694;21.206;2023-12-29T00:48:31;98290.38;;;4.24;74.66
76195;BME280;64964;48.694;21.206;2023-12-29T00:50:57;98302.31;;;4.06;74.90
76195;BME280;64964;48.694;21.206;2023-12-29T00:53:22;98301.38;;;3.85;75.34
76195;BME280;64964;48.694;21.206;2023-12-29T00:55:48;98312.66;;;3.74;75.87
76195;BME280;64964;48.694;21.206;2023-12-29T00:58:13;98303.50;;;3.68;76.36
76195;BME280;64964;48.694;21.206;2023-12-29T01:00:38;98307.28;;;3.75;75.92
76195;BME280;64964;48.694;21.206;2023-12-29T01:03:04;98305.41;;;3.78;76.02
76195;BME280;64964;48.694;21.206;2023-12-29T01:05:29;98303.50;;;3.80;75.65
76195;BME280;64964;48.694;21.206;2023-12-29T01:07:55;98303.41;;;3.81;75.87
76195;BME280;64964;48.694;21.206;2023-12-29T01:10:21;98300.78;;;3.81;76.53
76195;BME280;64964;48.694;21.206;2023-12-29T01:12:46;98304.81;;;3.85;76.60
76195;BME280;64964;48.694;21.206;2023-12-29T01:15:11;98308.03;;;3.89;76.64
76195;BME280;64964;48.694;21.206;2023-12-29T01:17:37;98306.34;;;3.88;78.25
76195;BME280;64964;48.694;21.206;2023-12-29T01:20:02;98305.28;;;3.90;77.99
76195;BME280;64964;48.694;21.206;2023-12-29T01:22:29;98303.00;;;3.97;77.07
76195;BME280;64964;48.694;21.206;2023-12-29T01:24:55;98285.88;;;3.93;76.90
76195;BME280;64964;48.694;21.206;2023-12-29T01:27:20;98292.91;;;4.04;77.89
76195;BME280;64964;48.694;21.206;2023-12-29T01:29:45;98293.50;;;4.07;77.44
76195;BME280;64964;48.694;21.206;2023-12-29T01:32:11;98290.38;;;4.13;77.24
76195;BME280;64964;48.694;21.206;2023-12-29T01:34:36;98285.63;;;4.18;77.23
76195;BME280;64964;48.694;21.206;2023-12-29T01:37:03;98249.63;;;3.99;76.74
76195;BME280;64964;48.694;21.206;2023-12-29T01:39:32;98279.06;;;4.24;77.21
76195;BME280;64964;48.694;21.206;2023-12-29T01:41:58;98262.91;;;4.19;77.05
76195;BME280;64964;48.694;21.206;2023-12-29T01:44:24;98277.41;;;4.23;77.22
76195;BME280;64964;48.694;21.206;2023-12-29T01:46:59;98283.34;;;4.25;78.02
76195;BME280;64964;48.694;21.206;2023-12-29T01:49:26;98280.03;;;4.23;77.77
76195;BME280;64964;48.694;21.206;2023-12-29T01:51:57;98297.03;;;4.29;77.67
76195;BME280;64964;48.694;21.206;2023-12-29T01:54:24;98293.19;;;4.33;77.70
76195;BME280;64964;48.694;21.206;2023-12-29T01:56:52;98299.03;;;4.36;77.07
76195;BME280;64964;48.694;21.206;2023-12-29T01:59:20;98284.38;;;4.34;76.86
76195;BME280;64964;48.694;21.206;2023-12-29T02:01:46;98298.41;;;4.44;77.00
76195;BME280;64964;48.694;21.206;2023-12-29T02:04:12;98298.16;;;4.47;77.03
76195;BME280;64964;48.694;21.206;2023-12-29T02:06:39;98278.69;;;4.40;76.78
76195;BME280;64964;48.694;21.206;2023-12-29T02:09:05;98297.81;;;4.52;76.62
76195;BME280;64964;48.694;21.206;2023-12-29T02:11:31;98298.75;;;4.50;76.57
76195;BME280;64964;48.694;21.206;2023-12-29T02:13:58;98299.47;;;4.41;76.88
76195;BME280;64964;48.694;21.206;2023-12-29T02:16:46;98300.31;;;4.42;77.58
76195;BME280;64964;48.694;21.206;2023-12-29T02:19:39;98301.13;;;4.42;77.39
76195;BME280;64964;48.694;21.206;2023-12-29T02:22:05;98302.31;;;4.49;77.22
76195;BME280;64964;48.694;21.206;2023-12-29T02:24:32;98297.53;;;4.55;77.07
76195;BME280;64964;48.694;21.206;2023-12-29T02:29:30;98312.50;;;4.64;77.00
76195;BME280;64964;48.694;21.206;2023-12-29T02:31:59;98299.53;;;4.62;76.95
76195;BME280;64964;48.694;21.206;2023-12-29T02:34:25;98308.66;;;4.68;77.00
76195;BME280;64964;48.694;21.206;2023-12-29T02:36:53;98310.09;;;4.72;76.84
76195;BME280;64964;48.694;21.206;2023-12-29T02:39:19;98304.75;;;4.73;76.49
76195;BME280;64964;48.694;21.206;2023-12-29T02:41:45;98305.19;;;4.79;76.56
76195;BME280;64964;48.694;21.206;2023-12-29T02:44:11;98285.69;;;4.71;76.65
76195;BME280;64964;48.694;21.206;2023-12-29T02:46:37;98298.59;;;4.84;76.81
76195;BME280;64964;48.694;21.206;2023-12-29T02:49:02;98265.84;;;4.69;76.38
76195;BME280;64964;48.694;21.206;2023-12-29T02:51:27;98281.00;;;4.86;76.26
76195;BME280;64964;48.694;21.206;2023-12-29T02:53:53;98273.25;;;4.85;76.25
76195;BME280;64964;48.694;21.206;2023-12-29T02:56:18;98266.25;;;4.85;76.55
76195;BME280;64964;48.694;21.206;2023-12-29T02:58:44;98260.03;;;4.86;76.18
76195;BME280;64964;48.694;21.206;2023-12-29T03:01:11;98267.75;;;4.88;76.27
76195;BME280;64964;48.694;21.206;2023-12-29T03:03:36;98255.75;;;4.85;76.14
76195;BME280;64964;48.694;21.206;2023-12-29T03:06:05;98270.28;;;4.89;76.27
76195;BME280;64964;48.694;21.206;2023-12-29T03:08:30;98270.38;;;4.88;76.08
76195;BME280;64964;48.694;21.206;2023-12-29T03:10:56;98269.78;;;4.84;75.91
76195;BME280;64964;48.694;21.206;2023-12-29T03:13:22;98270.31;;;4.78;75.79
76195;BME280;64964;48.694;21.206;2023-12-29T03:15:47;98266.91;;;4.66;75.88
76195;BME280;64964;48.694;21.206;2023-12-29T03:18:12;98263.50;;;4.55;76.07
76195;BME280;64964;48.694;21.206;2023-12-29T03:20:38;98263.28;;;4.46;76.92
76195;BME280;64964;48.694;21.206;2023-12-29T03:23:03;98263.56;;;4.43;76.58
76195;BME280;64964;48.694;21.206;2023-12-29T03:25:29;98264.75;;;4.39;77.20
76195;BME280;64964;48.694;21.206;2023-12-29T03:27:54;98253.81;;;4.34;76.97
76195;BME280;64964;48.694;21.206;2023-12-29T03:30:19;98251.09;;;4.36;77.03
76195;BME280;64964;48.694;21.206;2023-12-29T03:32:45;98248.47;;;4.36;77.26
76195;BME280;64964;48.694;21.206;2023-12-29T03:35:10;98231.94;;;4.35;76.82
76195;BME280;64964;48.694;21.206;2023-12-29T03:37:35;98244.53;;;4.30;76.80
76195;BME280;64964;48.694;21.206;2023-12-29T03:40:01;98236.47;;;4.22;76.56
76195;BME280;64964;48.694;21.206;2023-12-29T03:42:26;98228.41;;;4.14;76.80
76195;BME280;64964;48.694;21.206;2023-12-29T03:44:51;98229.75;;;4.08;76.77
76195;BME280;64964;48.694;21.206;2023-12-29T03:47:17;98204.81;;;3.93;76.43
76195;BME280;64964;48.694;21.206;2023-12-29T03:49:42;98219.94;;;3.89;76.51
76195;BME280;64964;48.694;21.206;2023-12-29T03:52:08;98202.75;;;3.64;76.89
76195;BME280;64964;48.694;21.206;2023-12-29T03:54:33;98215.44;;;3.58;77.30
76195;BME280;64964;48.694;21.206;2023-12-29T03:56:59;98209.06;;;3.39;77.46
76195;BME280;64964;48.694;21.206;2023-12-29T03:59:24;98207.50;;;3.37;78.03
76195;BME280;64964;48.694;21.206;2023-12-29T04:01:49;98212.38;;;3.41;77.91
76195;BME280;64964;48.694;21.206;2023-12-29T04:04:15;98192.31;;;3.31;78.48
76195;BME280;64964;48.694;21.206;2023-12-29T04:06:40;98214.88;;;3.43;78.09
76195;BME280;64964;48.694;21.206;2023-12-29T04:09:05;98231.38;;;3.55;78.01
76195;BME280;64964;48.694;21.206;2023-12-29T04:11:31;98237.19;;;3.58;77.38
76195;BME280;64964;48.694;21.206;2023-12-29T04:13:56;98238.50;;;3.64;77.17
76195;BME280;64964;48.694;21.206;2023-12-29T04:16:21;98213.44;;;3.50;77.24
76195;BME280;64964;48.694;21.206;2023-12-29T04:18:47;98244.44;;;3.66;77.38
76195;BME280;64964;48.694;21.206;2023-12-29T04:21:15;98238.25;;;3.67;77.44
76195;BME280;64964;48.694;21.206;2023-12-29T04:23:41;98217.69;;;3.62;77.52
76195;BME280;64964;48.694;21.206;2023-12-29T04:26:09;98216.97;;;3.71;77.29
76195;BME280;64964;48.694;21.206;2023-12-29T04:28:34;98216.28;;;3.69;77.03
76195;BME280;64964;48.694;21.206;2023-12-29T04:31:00;98210.59;;;3.64;77.51
76195;BME280;64964;48.694;21.206;2023-12-29T04:33:25;98216.03;;;3.61;77.70
76195;BME280;64964;48.694;21.206;2023-12-29T04:35:51;98215.44;;;3.58;77.82
76195;BME280;64964;48.694;21.206;2023-12-29T04:38:16;98224.84;;;3.60;78.23
76195;BME280;64964;48.694;21.206;2023-12-29T04:40:43;98244.22;;;3.69;78.21
76195;BME280;64964;48.694;21.206;2023-12-29T04:43:09;98212.09;;;3.67;78.07
76195;BME280;64964;48.694;21.206;2023-12-29T04:45:34;98219.13;;;3.78;78.23
76195;BME280;64964;48.694;21.206;2023-12-29T04:47:59;98211.38;;;3.76;77.89
76195;BME280;64964;48.694;21.206;2023-12-29T04:50:25;98205.81;;;3.69;78.13
76195;BME280;64964;48.694;21.206;2023-12-29T04:52:50;98201.78;;;3.65;78.82
76195;BME280;64964;48.694;21.206;2023-12-29T04:55:15;98205.94;;;3.57;78.91
76195;BME280;64964;48.694;21.206;2023-12-29T04:57:41;98197.16;;;3.46;79.25
76195;BME280;64964;48.694;21.206;2023-12-29T05:00:07;98204.75;;;3.49;79.26
76195;BME280;64964;48.694;21.206;2023-12-29T05:02:32;98206.19;;;3.54;79.42
76195;BME280;64964;48.694;21.206;2023-12-29T05:04:57;98180.66;;;3.46;79.68
76195;BME280;64964;48.694;21.206;2023-12-29T05:07:23;98205.94;;;3.68;79.08
76195;BME280;64964;48.694;21.206;2023-12-29T05:09:49;98223.03;;;3.72;79.16
76195;BME280;64964;48.694;21.206;2023-12-29T05:12:15;98207.59;;;3.69;79.27
76195;BME280;64964;48.694;21.206;2023-12-29T05:14:40;98221.50;;;3.81;79.01
76195;BME280;64964;48.694;21.206;2023-12-29T05:17:05;98209.25;;;3.81;78.83
76195;BME280;64964;48.694;21.206;2023-12-29T05:19:31;98212.31;;;3.86;78.40
76195;BME280;64964;48.694;21.206;2023-12-29T05:21:57;98176.22;;;3.69;78.62
76195;BME280;64964;48.694;21.206;2023-12-29T05:24:22;98221.09;;;3.96;78.58
76195;BME280;64964;48.694;21.206;2023-12-29T05:26:47;98220.41;;;3.94;78.78
76195;BME280;64964;48.694;21.206;2023-12-29T05:29:13;98215.63;;;3.99;78.64
76195;BME280;64964;48.694;21.206;2023-12-29T05:31:38;98222.13;;;4.05;79.04
76195;BME280;64964;48.694;21.206;2023-12-29T05:34:03;98213.34;;;4.06;78.55
76195;BME280;64964;48.694;21.206;2023-12-29T05:36:29;98209.28;;;4.13;78.26
76195;BME280;64964;48.694;21.206;2023-12-29T05:38:56;98202.88;;;4.06;78.42
76195;BME280;64964;48.694;21.206;2023-12-29T05:41:21;98217.72;;;4.17;78.25
76195;BME280;64964;48.694;21.206;2023-12-29T05:43:46;98214.03;;;4.19;78.07
76195;BME280;64964;48.694;21.206;2023-12-29T05:46:12;98211.78;;;4.15;77.91
76195;BME280;64964;48.694;21.206;2023-12-29T05:48:38;98211.88;;;4.13;78.14
76195;BME280;64964;48.694;21.206;2023-12-29T05:51:08;98209.66;;;4.09;78.12
76195;BME280;64964;48.694;21.206;2023-12-29T05:53:34;98205.50;;;4.06;78.09
76195;BME280;64964;48.694;21.206;2023-12-29T05:55:59;98204.53;;;4.07;78.29
76195;BME280;64964;48.694;21.206;2023-12-29T05:58:25;98216.56;;;4.10;78.45
76195;BME280;64964;48.694;21.206;2023-12-29T06:00:50;98215.31;;;4.14;78.26
76195;BME280;64964;48.694;21.206;2023-12-29T06:03:15;98208.34;;;4.14;78.30
76195;BME280;64964;48.694;21.206;2023-12-29T06:05:41;98215.81;;;4.19;77.76
76195;BME280;64964;48.694;21.206;2023-12-29T06:08:07;98209.03;;;4.16;77.66
76195;BME280;64964;48.694;21.206;2023-12-29T06:10:32;98221.91;;;4.08;77.74
76195;BME280;64964;48.694;21.206;2023-12-29T06:12:58;98222.63;;;3.99;78.09
76195;BME280;64964;48.694;21.206;2023-12-29T06:15:23;98211.72;;;3.94;78.40
76195;BME280;64964;48.694;21.206;2023-12-29T06:17:48;98201.72;;;3.88;78.53
76195;BME280;64964;48.694;21.206;2023-12-29T06:20:14;98214.94;;;3.86;78.68
76195;BME280;64964;48.694;21.206;2023-12-29T06:22:40;98211.28;;;3.78;78.91
76195;BME280;64964;48.694;21.206;2023-12-29T06:25:11;98219.03;;;3.68;79.09
76195;BME280;64964;48.694;21.206;2023-12-29T06:27:37;98220.53;;;3.59;79.39
76195;BME280;64964;48.694;21.206;2023-12-29T06:30:05;98221.88;;;3.54;79.54
76195;BME280;64964;48.694;21.206;2023-12-29T06:32:31;98230.78;;;3.62;79.46
76195;BME280;64964;48.694;21.206;2023-12-29T06:34:56;98221.41;;;3.60;79.72
76195;BME280;64964;48.694;21.206;2023-12-29T06:37:22;98203.22;;;3.58;79.40
76195;BME280;64964;48.694;21.206;2023-12-29T06:39:47;98214.50;;;3.59;79.94
76195;BME280;64964;48.694;21.206;2023-12-29T06:42:12;98214.75;;;3.56;80.12
76195;BME280;64964;48.694;21.206;2023-12-29T06:44:38;98234.94;;;3.65;79.91
76195;BME280;64964;48.694;21.206;2023-12-29T06:47:04;98232.91;;;3.68;79.65
76195;BME280;64964;48.694;21.206;2023-12-29T06:49:31;98239.44;;;3.74;79.65
76195;BME280;64964;48.694;21.206;2023-12-29T06:51:57;98233.97;;;3.77;79.45
76195;BME280;64964;48.694;21.206;2023-12-29T06:54:22;98232.88;;;3.80;79.66
76195;BME280;64964;48.694;21.206;2023-12-29T06:56:47;98232.53;;;3.84;78.94
76195;BME280;64964;48.694;21.206;2023-12-29T06:59:14;98219.34;;;3.86;79.14
76195;BME280;64964;48.694;21.206;2023-12-29T07:01:39;98225.63;;;3.83;79.29
76195;BME280;64964;48.694;21.206;2023-12-29T07:04:07;98219.34;;;3.86;79.28
76195;BME280;64964;48.694;21.206;2023-12-29T07:06:36;98222.56;;;3.89;78.83
76195;BME280;64964;48.694;21.206;2023-12-29T07:09:02;98226.22;;;3.87;79.15
76195;BME280;64964;48.694;21.206;2023-12-29T07:11:28;98193.28;;;3.84;78.83
76195;BME280;64964;48.694;21.206;2023-12-29T07:13:54;98193.78;;;3.89;78.54
76195;BME280;64964;48.694;21.206;2023-12-29T07:16:19;98179.53;;;3.82;78.69
76195;BME280;64964;48.694;21.206;2023-12-29T07:18:45;98191.16;;;3.89;78.67
76195;BME280;64964;48.694;21.206;2023-12-29T07:21:11;98195.56;;;3.89;78.38
76195;BME280;64964;48.694;21.206;2023-12-29T07:23:38;98200.44;;;3.82;78.71
76195;BME280;64964;48.694;21.206;2023-12-29T07:26:03;98192.84;;;3.79;78.72
76195;BME280;64964;48.694;21.206;2023-12-29T07:28:29;98211.28;;;3.78;79.03
76195;BME280;64964;48.694;21.206;2023-12-29T07:30:54;98201.63;;;3.78;78.90
76195;BME280;64964;48.694;21.206;2023-12-29T07:33:19;98214.84;;;3.77;78.75
76195;BME280;64964;48.694;21.206;2023-12-29T07:35:45;98208.91;;;3.74;78.70
76195;BME280;64964;48.694;21.206;2023-12-29T07:38:10;98206.63;;;3.81;78.81
76195;BME280;64964;48.694;21.206;2023-12-29T07:40:36;98179.22;;;3.64;78.66
76195;BME280;64964;48.694;21.206;2023-12-29T07:43:01;98202.00;;;3.85;78.85
76195;BME280;64964;48.694;21.206;2023-12-29T07:45:26;98208.06;;;3.85;78.79
76195;BME280;64964;48.694;21.206;2023-12-29T07:47:52;98204.03;;;3.81;78.93
76195;BME280;64964;48.694;21.206;2023-12-29T07:50:17;98190.97;;;3.70;80.06
76195;BME280;64964;48.694;21.206;2023-12-29T07:52:44;98215.06;;;3.85;79.40
76195;BME280;64964;48.694;21.206;2023-12-29T07:55:09;98207.91;;;3.87;79.70
76195;BME280;64964;48.694;21.206;2023-12-29T07:57:34;98211.59;;;3.95;79.19
76195;BME280;64964;48.694;21.206;2023-12-29T08:00:01;98201.25;;;3.94;78.88
76195;BME280;64964;48.694;21.206;2023-12-29T08:02:26;98210.97;;;4.03;78.97
76195;BME280;64964;48.694;21.206;2023-12-29T08:04:52;98211.44;;;4.08;78.88
76195;BME280;64964;48.694;21.206;2023-12-29T08:07:19;98192.91;;;4.00;78.90
76195;BME280;64964;48.694;21.206;2023-12-29T08:09:45;98221.66;;;4.11;78.97
76195;BME280;64964;48.694;21.206;2023-12-29T08:12:10;98222.50;;;4.12;79.58
76195;BME280;64964;48.694;21.206;2023-12-29T08:14:36;98224.50;;;4.19;78.45
76195;BME280;64964;48.694;21.206;2023-12-29T08:17:01;98212.03;;;4.00;78.63
76195;BME280;64964;48.694;21.206;2023-12-29T08:19:26;98237.22;;;4.13;79.57
76195;BME280;64964;48.694;21.206;2023-12-29T08:21:52;98239.94;;;4.22;78.58
76195;BME280;64964;48.694;21.206;2023-12-29T08:24:18;98219.94;;;4.21;78.61
76195;BME280;64964;48.694;21.206;2023-12-29T08:26:46;98228.00;;;4.30;78.43
76195;BME280;64964;48.694;21.206;2023-12-29T08:29:12;98230.03;;;4.26;79.07
76195;BME280;64964;48.694;21.206;2023-12-29T08:31:38;98227.06;;;4.31;78.71
76195;BME280;64964;48.694;21.206;2023-12-29T08:34:03;98220.09;;;4.20;78.57
76195;BME280;64964;48.694;21.206;2023-12-29T08:36:29;98222.78;;;4.30;78.36
76195;BME280;64964;48.694;21.206;2023-12-29T08:38:54;98229.69;;;4.31;78.40
76195;BME280;64964;48.694;21.206;2023-12-29T08:41:19;98231.38;;;4.20;78.26
76195;BME280;64964;48.694;21.206;2023-12-29T08:43:45;98244.59;;;4.19;78.42
76195;BME280;64964;48.694;21.206;2023-12-29T08:46:10;98230.47;;;4.10;78.51
76195;BME280;64964;48.694;21.206;2023-12-29T08:48:36;98248.50;;;4.13;78.45
76195;BME280;64964;48.694;21.206;2023-12-29T08:51:01;98244.63;;;4.08;78.59
76195;BME280;64964;48.694;21.206;2023-12-29T08:53:26;98220.75;;;3.90;78.73
76195;BME280;64964;48.694;21.206;2023-12-29T08:55:52;98242.00;;;4.08;78.42
76195;BME280;64964;48.694;21.206;2023-12-29T08:58:17;98243.66;;;4.09;78.73
76195;BME280;64964;48.694;21.206;2023-12-29T09:00:43;98246.28;;;4.09;78.59
76195;BME280;64964;48.694;21.206;2023-12-29T09:03:08;98234.28;;;4.06;78.62
76195;BME280;64964;48.694;21.206;2023-12-29T09:05:34;98233.78;;;4.12;78.58
76195;BME280;64964;48.694;21.206;2023-12-29T09:07:59;98245.53;;;4.18;78.69
76195;BME280;64964;48.694;21.206;2023-12-29T09:10:24;98250.41;;;4.22;78.31
76195;BME280;64964;48.694;21.206;2023-12-29T09:12:50;98238.16;;;4.23;78.09
76195;BME280;64964;48.694;21.206;2023-12-29T09:15:16;98227.56;;;4.24;78.25
76195;BME280;64964;48.694;21.206;2023-12-29T09:17:41;98189.69;;;4.08;78.08
76195;BME280;64964;48.694;21.206;2023-12-29T09:20:07;98218.25;;;4.32;78.02
76195;BME280;64964;48.694;21.206;2023-12-29T09:22:35;98206.75;;;4.23;77.80
76195;BME280;64964;48.694;21.206;2023-12-29T09:25:01;98206.28;;;4.18;77.84
76195;BME280;64964;48.694;21.206;2023-12-29T09:27:26;98210.06;;;4.25;77.75
76195;BME280;64964;48.694;21.206;2023-12-29T09:29:51;98199.00;;;4.21;77.78
76195;BME280;64964;48.694;21.206;2023-12-29T09:32:17;98190.47;;;4.19;77.92
76195;BME280;64964;48.694;21.206;2023-12-29T09:34:42;98187.72;;;4.21;78.23
76195;BME280;64964;48.694;21.206;2023-12-29T09:37:08;98197.22;;;4.22;78.21
76195;BME280;64964;48.694;21.206;2023-12-29T09:39:33;98203.78;;;4.16;78.35
76195;BME280;64964;48.694;21.206;2023-12-29T09:41:59;98202.16;;;4.15;78.25
76195;BME280;64964;48.694;21.206;2023-12-29T09:44:27;98217.91;;;4.25;77.93
76195;BME280;64964;48.694;21.206;2023-12-29T09:47:01;98220.66;;;4.23;77.59
76195;BME280;64964;48.694;21.206;2023-12-29T09:49:36;98187.22;;;3.95;77.88
76195;BME280;64964;48.694;21.206;2023-12-29T09:52:03;98175.00;;;3.84;77.84
76195;BME280;64964;48.694;21.206;2023-12-29T09:54:29;98220.84;;;4.11;77.75
76195;BME280;64964;48.694;21.206;2023-12-29T09:56:56;98216.06;;;4.05;77.99
76195;BME280;64964;48.694;21.206;2023-12-29T09:59:22;98212.03;;;4.00;78.07
76195;BME280;64964;48.694;21.206;2023-12-29T10:01:50;98207.91;;;3.98;78.10
76195;BME280;64964;48.694;21.206;2023-12-29T10:04:16;98209.47;;;3.89;78.60
76195;BME280;64964;48.694;21.206;2023-12-29T10:06:44;98215.63;;;3.88;78.62
76195;BME280;64964;48.694;21.206;2023-12-29T10:09:12;98211.72;;;3.83;78.81
76195;BME280;64964;48.694;21.206;2023-12-29T10:11:40;98200.34;;;3.72;78.81
76195;BME280;64964;48.694;21.206;2023-12-29T10:14:24;98194.16;;;3.62;79.27
76195;BME280;64964;48.694;21.206;2023-12-29T10:17:03;98165.78;;;3.46;79.55
76195;BME280;64964;48.694;21.206;2023-12-29T10:19:41;98176.38;;;3.34;80.22
76195;BME280;64964;48.694;21.206;2023-12-29T10:22:11;98181.84;;;3.42;80.56
76195;BME280;64964;48.694;21.206;2023-12-29T10:24:41;98190.16;;;3.36;80.35
76195;BME280;64964;48.694;21.206;2023-12-29T10:27:09;98202.75;;;3.42;80.53
76195;BME280;64964;48.694;21.206;2023-12-29T10:29:34;98200.03;;;3.43;80.80
76195;BME280;64964;48.694;21.206;2023-12-29T10:32:00;98211.31;;;3.44;81.09
76195;BME280;64964;48.694;21.206;2023-12-29T10:34:25;98186.00;;;3.33;81.39
76195;BME280;64964;48.694;21.206;2023-12-29T10:36:57;98191.81;;;3.37;81.61
76195;BME280;64964;48.694;21.206;2023-12-29T10:39:23;98182.22;;;3.26;81.91
76195;BME280;64964;48.694;21.206;2023-12-29T10:41:49;98185.31;;;3.31;81.87
76195;BME280;64964;48.694;21.206;2023-12-29T10:44:16;98181.84;;;3.31;82.20
76195;BME280;64964;48.694;21.206;2023-12-29T10:46:41;98177.34;;;3.33;82.12
76195;BME280;64964;48.694;21.206;2023-12-29T10:49:08;98163.66;;;3.29;82.10
76195;BME280;64964;48.694;21.206;2023-12-29T10:51:36;98179.59;;;3.37;82.44
76195;BME280;64964;48.694;21.206;2023-12-29T10:54:05;98187.44;;;3.48;82.40
76195;BME280;64964;48.694;21.206;2023-12-29T10:56:31;98174.34;;;3.48;82.20
76195;BME280;64964;48.694;21.206;2023-12-29T10:59:06;98166.75;;;3.57;81.69
76195;BME280;64964;48.694;21.206;2023-12-29T11:01:33;98124.94;;;3.34;81.51
76195;BME280;64964;48.694;21.206;2023-12-29T11:04:03;98164.00;;;3.58;81.83
76195;BME280;64964;48.694;21.206;2023-12-29T11:06:30;98164.22;;;3.55;82.05
76195;BME280;64964;48.694;21.206;2023-12-29T11:09:04;98158.06;;;3.56;82.06
76195;BME280;64964;48.694;21.206;2023-12-29T11:11:31;98153.22;;;3.52;82.37
76195;BME280;64964;48.694;21.206;2023-12-29T11:13:58;98136.47;;;3.43;82.20
76195;BME280;64964;48.694;21.206;2023-12-29T11:16:25;98142.50;;;3.55;82.36
76195;BME280;64964;48.694;21.206;2023-12-29T11:18:51;98126.44;;;3.59;81.98
76195;BME280;64964;48.694;21.206;2023-12-29T11:21:19;98131.19;;;3.65;82.17
76195;BME280;64964;48.694;21.206;2023-12-29T11:23:47;98129.16;;;3.69;82.06
76195;BME280;64964;48.694;21.206;2023-12-29T11:26:12;98126.28;;;3.72;82.17
76195;BME280;64964;48.694;21.206;2023-12-29T11:28:38;98110.16;;;3.67;81.95
76195;BME280;64964;48.694;21.206;2023-12-29T11:31:03;98120.13;;;3.73;82.14
76195;BME280;64964;48.694;21.206;2023-12-29T11:33:34;98093.09;;;3.52;82.75
76195;BME280;64964;48.694;21.206;2023-12-29T11:36:11;98087.88;;;3.52;82.23
76195;BME280;64964;48.694;21.206;2023-12-29T11:39:02;98121.75;;;3.85;82.24
76195;BME280;64964;48.694;21.206;2023-12-29T11:44:27;98102.50;;;3.75;82.08
76195;BME280;64964;48.694;21.206;2023-12-29T11:46:53;98118.22;;;3.75;82.45
76195;BME280;64964;48.694;21.206;2023-12-29T11:49:19;98129.25;;;3.79;82.59
76195;BME280;64964;48.694;21.206;2023-12-29T11:51:49;98081.78;;;3.51;82.73
76195;BME280;64964;48.694;21.206;2023-12-29T11:54:24;98129.69;;;3.84;82.99
76195;BME280;64964;48.694;21.206;2023-12-29T11:56:49;98125.06;;;3.87;82.50
76195;BME280;64964;48.694;21.206;2023-12-29T11:59:24;98135.03;;;3.93;82.09
76195;BME280;64964;48.694;21.206;2023-12-29T12:01:52;98114.84;;;3.84;82.23
76195;BME280;64964;48.694;21.206;2023-12-29T12:04:44;98121.16;;;3.82;82.74
76195;BME280;64964;48.694;21.206;2023-12-29T12:07:16;98110.81;;;3.80;82.68
76195;BME280;64964;48.694;21.206;2023-12-29T12:09:42;98116.31;;;3.77;82.73
76195;BME280;64964;48.694;21.206;2023-12-29T12:12:09;98110.81;;;3.80;82.93
76195;BME280;64964;48.694;21.206;2023-12-29T12:14:51;98064.06;;;3.55;82.55
76195;BME280;64964;48.694;21.206;2023-12-29T12:17:33;98101.56;;;3.76;83.01
76195;BME280;64964;48.694;21.206;2023-12-29T12:20:08;98103.09;;;3.79;83.02
76195;BME280;64964;48.694;21.206;2023-12-29T12:22:34;98098.00;;;3.77;82.96
76195;BME280;64964;48.694;21.206;2023-12-29T12:25:00;98099.41;;;3.81;83.00
76195;BME280;64964;48.694;21.206;2023-12-29T12:27:27;98105.03;;;3.77;82.93
76195;BME280;64964;48.694;21.206;2023-12-29T12:29:54;98084.72;;;3.69;82.95
76195;BME280;64964;48.694;21.206;2023-12-29T12:32:23;98091.03;;;3.66;83.26
76195;BME280;64964;48.694;21.206;2023-12-29T12:34:48;98103.25;;;3.66;83.22
76195;BME280;64964;48.694;21.206;2023-12-29T12:37:21;98102.56;;;3.64;83.58
76195;BME280;64964;48.694;21.206;2023-12-29T12:39:47;98106.69;;;3.78;83.48
76195;BME280;64964;48.694;21.206;2023-12-29T12:42:13;98093.59;;;3.78;82.84
76195;BME280;64964;48.694;21.206;2023-12-29T12:44:41;98091.00;;;3.78;82.44
76195;BME280;64964;48.694;21.206;2023-12-29T12:47:09;98070.09;;;3.66;82.30
76195;BME280;64964;48.694;21.206;2023-12-29T12:49:39;98114.84;;;3.84;82.34
76195;BME280;64964;48.694;21.206;2023-12-29T12:52:05;98116.31;;;3.77;82.34
76195;BME280;64964;48.694;21.206;2023-12-29T12:54:30;98110.97;;;3.67;82.64
76195;BME280;64964;48.694;21.206;2023-12-29T12:56:56;98114.53;;;3.78;83.08
76195;BME280;64964;48.694;21.206;2023-12-29T12:59:22;98115.22;;;3.80;82.87
76195;BME280;64964;48.694;21.206;2023-12-29T13:01:47;98101.31;;;3.79;82.14
76195;BME280;64964;48.694;21.206;2023-12-29T13:04:13;98101.75;;;3.84;82.29